KSLK

Adirondack Regional Airport

Saranac Lake, New York, USA
METAR KSLK 211951Z AUTO 22006KT 10SM FEW120 02/M02 A3004 RMK AO2 SLP188 T00221017
Observed Flight Rules
Jan-21 @ 19:51 UTC (26 minutes ago) Visual Flight Rules
Wind Visibility Clouds
220° at 6 knots 10 miles
  • Few at 12,000' AGL
Temperatures Readings
Current 2°C / 36°F
Dewpoint -2°C / 28°F
Humidity 75%
Altimeter 30.04" Hg
Pressure 1018.8 hPa
Elevation 498
METAR KSLK 211951Z AUTO 22006KT 10SM FEW120 02/M02 A3004 RMK AO2 SLP188 T00221017
Observed Flight Rules
Jan-21 @ 19:51 UTC
(26 minutes ago)
VFR
Wind Visibility
220° at 6 knots 10 miles
Clouds
  • Few at 12,000' AGL
Temperature Dewpoint
2°C / 36°F -2°C / 28°F
Humidity Altimeter Pressure
75% 30.04" Hg 1018.8 hPa